sensor_id;sensor_type;location;lat;lon;timestamp;P1;durP1;ratioP1;P2;durP2;ratioP2
25351;SDS011;13304;48.464;8.712;2022-07-25T00:01:01;12.27;;;9.40;;
25351;SDS011;13304;48.464;8.712;2022-07-25T00:03:28;13.60;;;10.25;;
25351;SDS011;13304;48.464;8.712;2022-07-25T00:05:53;10.65;;;9.00;;
25351;SDS011;13304;48.464;8.712;2022-07-25T00:08:19;9.93;;;8.93;;
25351;SDS011;13304;48.464;8.712;2022-07-25T00:10:45;12.25;;;9.25;;
25351;SDS011;13304;48.464;8.712;2022-07-25T00:13:11;10.60;;;8.52;;
25351;SDS011;13304;48.464;8.712;2022-07-25T00:15:36;10.57;;;9.48;;
25351;SDS011;13304;48.464;8.712;2022-07-25T00:18:02;13.63;;;9.63;;
25351;SDS011;13304;48.464;8.712;2022-07-25T00:20:28;13.85;;;9.50;;
25351;SDS011;13304;48.464;8.712;2022-07-25T00:22:54;13.57;;;8.90;;
25351;SDS011;13304;48.464;8.712;2022-07-25T00:25:20;9.93;;;8.65;;
25351;SDS011;13304;48.464;8.712;2022-07-25T00:27:45;13.02;;;9.63;;
25351;SDS011;13304;48.464;8.712;2022-07-25T00:30:11;13.57;;;9.73;;
25351;SDS011;13304;48.464;8.712;2022-07-25T00:32:37;12.90;;;9.30;;
25351;SDS011;13304;48.464;8.712;2022-07-25T00:35:03;14.43;;;9.60;;
25351;SDS011;13304;48.464;8.712;2022-07-25T00:37:29;11.25;;;9.10;;
25351;SDS011;13304;48.464;8.712;2022-07-25T00:39:55;11.68;;;9.02;;
25351;SDS011;13304;48.464;8.712;2022-07-25T00:42:21;11.40;;;9.27;;
25351;SDS011;13304;48.464;8.712;2022-07-25T00:44:48;10.13;;;8.82;;
25351;SDS011;13304;48.464;8.712;2022-07-25T00:47:14;11.60;;;9.40;;
25351;SDS011;13304;48.464;8.712;2022-07-25T00:49:40;10.38;;;9.18;;
25351;SDS011;13304;48.464;8.712;2022-07-25T00:52:06;10.48;;;8.70;;
25351;SDS011;13304;48.464;8.712;2022-07-25T00:54:32;10.13;;;8.02;;
25351;SDS011;13304;48.464;8.712;2022-07-25T00:56:58;11.52;;;8.90;;
25351;SDS011;13304;48.464;8.712;2022-07-25T00:59:24;15.85;;;9.13;;
25351;SDS011;13304;48.464;8.712;2022-07-25T01:01:50;10.73;;;9.07;;
25351;SDS011;13304;48.464;8.712;2022-07-25T01:04:16;11.63;;;9.00;;
25351;SDS011;13304;48.464;8.712;2022-07-25T01:06:41;12.98;;;8.57;;
25351;SDS011;13304;48.464;8.712;2022-07-25T01:09:07;10.48;;;8.95;;
25351;SDS011;13304;48.464;8.712;2022-07-25T01:11:34;9.75;;;8.73;;
25351;SDS011;13304;48.464;8.712;2022-07-25T01:13:59;9.82;;;8.73;;
25351;SDS011;13304;48.464;8.712;2022-07-25T01:16:25;11.15;;;8.52;;
25351;SDS011;13304;48.464;8.712;2022-07-25T01:18:51;10.20;;;8.77;;
25351;SDS011;13304;48.464;8.712;2022-07-25T01:21:17;14.02;;;8.60;;
25351;SDS011;13304;48.464;8.712;2022-07-25T01:23:42;12.02;;;8.80;;
25351;SDS011;13304;48.464;8.712;2022-07-25T01:26:08;10.05;;;8.70;;
25351;SDS011;13304;48.464;8.712;2022-07-25T01:28:34;12.38;;;8.57;;
25351;SDS011;13304;48.464;8.712;2022-07-25T01:31:00;10.70;;;9.25;;
25351;SDS011;13304;48.464;8.712;2022-07-25T01:33:26;10.73;;;9.23;;
25351;SDS011;13304;48.464;8.712;2022-07-25T01:35:51;13.18;;;8.82;;
25351;SDS011;13304;48.464;8.712;2022-07-25T01:38:17;11.88;;;8.73;;
25351;SDS011;13304;48.464;8.712;2022-07-25T01:40:43;9.30;;;8.15;;
25351;SDS011;13304;48.464;8.712;2022-07-25T01:43:09;13.48;;;8.82;;
25351;SDS011;13304;48.464;8.712;2022-07-25T01:45:35;10.98;;;9.18;;
25351;SDS011;13304;48.464;8.712;2022-07-25T01:48:01;9.80;;;8.77;;
25351;SDS011;13304;48.464;8.712;2022-07-25T01:50:27;11.20;;;9.25;;
25351;SDS011;13304;48.464;8.712;2022-07-25T01:52:53;9.63;;;8.35;;
25351;SDS011;13304;48.464;8.712;2022-07-25T01:55:19;11.20;;;8.55;;
25351;SDS011;13304;48.464;8.712;2022-07-25T01:57:45;10.90;;;7.97;;
25351;SDS011;13304;48.464;8.712;2022-07-25T02:00:11;11.80;;;8.43;;
25351;SDS011;13304;48.464;8.712;2022-07-25T02:02:38;9.52;;;8.55;;
25351;SDS011;13304;48.464;8.712;2022-07-25T02:05:05;13.27;;;8.77;;
25351;SDS011;13304;48.464;8.712;2022-07-25T02:07:32;8.80;;;7.90;;
25351;SDS011;13304;48.464;8.712;2022-07-25T02:09:58;10.88;;;8.75;;
25351;SDS011;13304;48.464;8.712;2022-07-25T02:12:24;12.40;;;8.65;;
25351;SDS011;13304;48.464;8.712;2022-07-25T02:14:50;11.63;;;8.65;;
25351;SDS011;13304;48.464;8.712;2022-07-25T02:17:16;12.32;;;8.48;;
25351;SDS011;13304;48.464;8.712;2022-07-25T02:19:42;12.95;;;8.52;;
25351;SDS011;13304;48.464;8.712;2022-07-25T02:22:08;10.95;;;8.40;;
25351;SDS011;13304;48.464;8.712;2022-07-25T02:24:34;10.68;;;8.50;;
25351;SDS011;13304;48.464;8.712;2022-07-25T02:27:01;11.82;;;8.75;;
25351;SDS011;13304;48.464;8.712;2022-07-25T02:29:27;9.70;;;8.70;;
25351;SDS011;13304;48.464;8.712;2022-07-25T02:31:53;10.25;;;8.48;;
25351;SDS011;13304;48.464;8.712;2022-07-25T02:34:19;9.98;;;8.38;;
25351;SDS011;13304;48.464;8.712;2022-07-25T02:36:45;10.68;;;8.68;;
25351;SDS011;13304;48.464;8.712;2022-07-25T02:39:11;11.52;;;9.07;;
25351;SDS011;13304;48.464;8.712;2022-07-25T02:41:37;12.63;;;8.82;;
25351;SDS011;13304;48.464;8.712;2022-07-25T02:44:03;10.77;;;9.02;;
25351;SDS011;13304;48.464;8.712;2022-07-25T02:46:30;12.98;;;8.68;;
25351;SDS011;13304;48.464;8.712;2022-07-25T02:48:56;13.63;;;9.18;;
25351;SDS011;13304;48.464;8.712;2022-07-25T02:51:23;10.35;;;9.32;;
25351;SDS011;13304;48.464;8.712;2022-07-25T02:53:49;12.43;;;9.90;;
25351;SDS011;13304;48.464;8.712;2022-07-25T02:56:14;12.05;;;9.60;;
25351;SDS011;13304;48.464;8.712;2022-07-25T02:58:40;10.50;;;9.40;;
25351;SDS011;13304;48.464;8.712;2022-07-25T03:01:06;10.68;;;8.77;;
25351;SDS011;13304;48.464;8.712;2022-07-25T03:03:32;10.95;;;8.88;;
25351;SDS011;13304;48.464;8.712;2022-07-25T03:06:01;11.48;;;9.10;;
25351;SDS011;13304;48.464;8.712;2022-07-25T03:08:27;11.88;;;8.65;;
25351;SDS011;13304;48.464;8.712;2022-07-25T03:10:53;12.25;;;9.18;;
25351;SDS011;13304;48.464;8.712;2022-07-25T03:13:19;11.38;;;9.13;;
25351;SDS011;13304;48.464;8.712;2022-07-25T03:15:45;11.00;;;9.38;;
25351;SDS011;13304;48.464;8.712;2022-07-25T03:18:10;10.68;;;9.25;;
25351;SDS011;13304;48.464;8.712;2022-07-25T03:20:36;12.38;;;10.07;;
25351;SDS011;13304;48.464;8.712;2022-07-25T03:23:02;12.20;;;10.00;;
25351;SDS011;13304;48.464;8.712;2022-07-25T03:25:29;11.77;;;9.60;;
25351;SDS011;13304;48.464;8.712;2022-07-25T03:27:55;11.80;;;9.57;;
25351;SDS011;13304;48.464;8.712;2022-07-25T03:30:21;12.88;;;9.90;;
25351;SDS011;13304;48.464;8.712;2022-07-25T03:32:47;11.05;;;9.75;;
25351;SDS011;13304;48.464;8.712;2022-07-25T03:35:13;14.68;;;9.52;;
25351;SDS011;13304;48.464;8.712;2022-07-25T03:37:39;11.73;;;9.65;;
25351;SDS011;13304;48.464;8.712;2022-07-25T03:40:05;10.75;;;9.13;;
25351;SDS011;13304;48.464;8.712;2022-07-25T03:42:32;11.82;;;9.35;;
25351;SDS011;13304;48.464;8.712;2022-07-25T03:44:57;10.05;;;8.93;;
25351;SDS011;13304;48.464;8.712;2022-07-25T03:47:23;13.50;;;9.15;;
25351;SDS011;13304;48.464;8.712;2022-07-25T03:49:49;11.20;;;9.52;;
25351;SDS011;13304;48.464;8.712;2022-07-25T03:52:14;11.80;;;9.45;;
25351;SDS011;13304;48.464;8.712;2022-07-25T03:54:40;11.23;;;9.23;;
25351;SDS011;13304;48.464;8.712;2022-07-25T03:57:06;12.23;;;9.38;;
25351;SDS011;13304;48.464;8.712;2022-07-25T03:59:32;10.55;;;9.23;;
25351;SDS011;13304;48.464;8.712;2022-07-25T04:01:57;10.40;;;8.88;;
25351;SDS011;13304;48.464;8.712;2022-07-25T04:04:23;11.27;;;8.55;;
25351;SDS011;13304;48.464;8.712;2022-07-25T04:06:49;12.70;;;8.52;;
25351;SDS011;13304;48.464;8.712;2022-07-25T04:09:14;11.50;;;9.23;;
25351;SDS011;13304;48.464;8.712;2022-07-25T04:11:41;9.00;;;8.10;;
25351;SDS011;13304;48.464;8.712;2022-07-25T04:14:07;10.80;;;8.95;;
25351;SDS011;13304;48.464;8.712;2022-07-25T04:16:33;13.70;;;9.32;;
25351;SDS011;13304;48.464;8.712;2022-07-25T04:18:58;10.52;;;8.80;;
25351;SDS011;13304;48.464;8.712;2022-07-25T04:21:24;11.93;;;9.23;;
25351;SDS011;13304;48.464;8.712;2022-07-25T04:23:50;11.27;;;9.63;;
25351;SDS011;13304;48.464;8.712;2022-07-25T04:26:16;11.60;;;9.80;;
25351;SDS011;13304;48.464;8.712;2022-07-25T04:28:43;12.43;;;9.35;;
25351;SDS011;13304;48.464;8.712;2022-07-25T04:31:09;13.50;;;9.90;;
25351;SDS011;13304;48.464;8.712;2022-07-25T04:33:38;12.27;;;9.27;;
25351;SDS011;13304;48.464;8.712;2022-07-25T04:36:04;11.95;;;9.68;;
25351;SDS011;13304;48.464;8.712;2022-07-25T04:38:30;13.65;;;9.63;;
25351;SDS011;13304;48.464;8.712;2022-07-25T04:40:56;13.70;;;10.07;;
25351;SDS011;13304;48.464;8.712;2022-07-25T04:43:23;11.52;;;9.48;;
25351;SDS011;13304;48.464;8.712;2022-07-25T04:45:48;12.88;;;9.82;;
25351;SDS011;13304;48.464;8.712;2022-07-25T04:48:14;11.50;;;9.65;;
25351;SDS011;13304;48.464;8.712;2022-07-25T04:50:40;13.40;;;9.68;;
25351;SDS011;13304;48.464;8.712;2022-07-25T04:53:06;11.95;;;10.60;;
25351;SDS011;13304;48.464;8.712;2022-07-25T04:55:32;13.60;;;10.60;;
25351;SDS011;13304;48.464;8.712;2022-07-25T04:57:58;11.35;;;9.15;;
25351;SDS011;13304;48.464;8.712;2022-07-25T05:00:24;12.32;;;9.95;;
25351;SDS011;13304;48.464;8.712;2022-07-25T05:02:50;16.02;;;9.50;;
25351;SDS011;13304;48.464;8.712;2022-07-25T05:05:17;11.68;;;10.00;;
25351;SDS011;13304;48.464;8.712;2022-07-25T05:07:44;11.02;;;9.80;;
25351;SDS011;13304;48.464;8.712;2022-07-25T05:10:10;11.20;;;9.63;;
25351;SDS011;13304;48.464;8.712;2022-07-25T05:12:35;13.27;;;9.85;;
25351;SDS011;13304;48.464;8.712;2022-07-25T05:15:02;11.77;;;9.38;;
25351;SDS011;13304;48.464;8.712;2022-07-25T05:17:29;12.10;;;8.75;;
25351;SDS011;13304;48.464;8.712;2022-07-25T05:19:56;11.25;;;9.50;;
25351;SDS011;13304;48.464;8.712;2022-07-25T05:22:22;10.95;;;9.77;;
25351;SDS011;13304;48.464;8.712;2022-07-25T05:24:48;11.38;;;9.55;;
25351;SDS011;13304;48.464;8.712;2022-07-25T05:27:14;12.00;;;9.65;;
25351;SDS011;13304;48.464;8.712;2022-07-25T05:29:40;11.82;;;9.10;;
25351;SDS011;13304;48.464;8.712;2022-07-25T05:32:05;12.23;;;9.63;;
25351;SDS011;13304;48.464;8.712;2022-07-25T05:34:31;12.60;;;9.55;;
25351;SDS011;13304;48.464;8.712;2022-07-25T05:36:57;16.83;;;10.05;;
25351;SDS011;13304;48.464;8.712;2022-07-25T05:39:23;14.70;;;10.60;;
25351;SDS011;13304;48.464;8.712;2022-07-25T05:41:48;12.50;;;9.65;;
25351;SDS011;13304;48.464;8.712;2022-07-25T05:44:14;13.38;;;9.65;;
25351;SDS011;13304;48.464;8.712;2022-07-25T05:46:40;15.40;;;9.35;;
25351;SDS011;13304;48.464;8.712;2022-07-25T05:49:05;10.13;;;9.10;;
25351;SDS011;13304;48.464;8.712;2022-07-25T05:51:33;12.52;;;10.13;;
25351;SDS011;13304;48.464;8.712;2022-07-25T05:53:59;11.63;;;9.43;;
25351;SDS011;13304;48.464;8.712;2022-07-25T05:56:25;12.55;;;10.43;;
25351;SDS011;13304;48.464;8.712;2022-07-25T05:58:51;12.60;;;9.75;;
25351;SDS011;13304;48.464;8.712;2022-07-25T06:01:17;16.25;;;10.10;;
25351;SDS011;13304;48.464;8.712;2022-07-25T06:03:43;12.50;;;9.65;;
25351;SDS011;13304;48.464;8.712;2022-07-25T06:06:09;12.95;;;9.65;;
25351;SDS011;13304;48.464;8.712;2022-07-25T06:08:35;12.63;;;8.68;;
25351;SDS011;13304;48.464;8.712;2022-07-25T06:11:02;11.30;;;8.93;;
25351;SDS011;13304;48.464;8.712;2022-07-25T06:13:29;11.55;;;9.10;;
25351;SDS011;13304;48.464;8.712;2022-07-25T06:15:56;12.27;;;9.30;;
25351;SDS011;13304;48.464;8.712;2022-07-25T06:18:22;12.68;;;8.90;;
25351;SDS011;13304;48.464;8.712;2022-07-25T06:20:48;15.73;;;9.38;;
25351;SDS011;13304;48.464;8.712;2022-07-25T06:23:14;12.50;;;8.90;;
25351;SDS011;13304;48.464;8.712;2022-07-25T06:25:41;18.88;;;9.38;;
25351;SDS011;13304;48.464;8.712;2022-07-25T06:28:06;11.40;;;8.75;;
25351;SDS011;13304;48.464;8.712;2022-07-25T06:30:33;17.02;;;9.05;;
25351;SDS011;13304;48.464;8.712;2022-07-25T06:32:59;10.52;;;9.43;;
25351;SDS011;13304;48.464;8.712;2022-07-25T06:35:24;13.10;;;8.05;;
25351;SDS011;13304;48.464;8.712;2022-07-25T06:37:50;11.05;;;8.05;;
25351;SDS011;13304;48.464;8.712;2022-07-25T06:40:16;13.50;;;8.85;;
25351;SDS011;13304;48.464;8.712;2022-07-25T06:42:44;11.65;;;7.70;;
25351;SDS011;13304;48.464;8.712;2022-07-25T06:47:37;8.30;;;7.15;;
25351;SDS011;13304;48.464;8.712;2022-07-25T06:50:04;9.20;;;7.75;;
25351;SDS011;13304;48.464;8.712;2022-07-25T06:52:31;17.45;;;8.98;;
25351;SDS011;13304;48.464;8.712;2022-07-25T06:54:57;13.98;;;7.45;;
25351;SDS011;13304;48.464;8.712;2022-07-25T06:57:24;16.33;;;8.02;;
25351;SDS011;13304;48.464;8.712;2022-07-25T06:59:49;10.93;;;8.23;;
25351;SDS011;13304;48.464;8.712;2022-07-25T07:02:16;16.75;;;8.18;;
25351;SDS011;13304;48.464;8.712;2022-07-25T07:04:42;9.60;;;7.68;;
25351;SDS011;13304;48.464;8.712;2022-07-25T07:07:07;11.82;;;7.53;;
25351;SDS011;13304;48.464;8.712;2022-07-25T07:09:33;11.48;;;8.57;;
25351;SDS011;13304;48.464;8.712;2022-07-25T07:11:59;8.68;;;7.63;;
25351;SDS011;13304;48.464;8.712;2022-07-25T07:14:24;10.32;;;7.80;;
25351;SDS011;13304;48.464;8.712;2022-07-25T07:16:50;9.60;;;7.70;;
25351;SDS011;13304;48.464;8.712;2022-07-25T07:19:16;9.38;;;7.95;;
25351;SDS011;13304;48.464;8.712;2022-07-25T07:21:42;9.25;;;8.23;;
25351;SDS011;13304;48.464;8.712;2022-07-25T07:24:08;10.02;;;7.53;;
25351;SDS011;13304;48.464;8.712;2022-07-25T07:26:34;9.52;;;7.97;;
25351;SDS011;13304;48.464;8.712;2022-07-25T07:29:00;13.45;;;8.43;;
25351;SDS011;13304;48.464;8.712;2022-07-25T07:31:27;10.25;;;8.40;;
25351;SDS011;13304;48.464;8.712;2022-07-25T07:33:53;8.75;;;7.72;;
25351;SDS011;13304;48.464;8.712;2022-07-25T07:36:19;11.50;;;8.35;;
25351;SDS011;13304;48.464;8.712;2022-07-25T07:38:45;10.00;;;7.78;;
25351;SDS011;13304;48.464;8.712;2022-07-25T07:41:12;9.30;;;8.13;;
25351;SDS011;13304;48.464;8.712;2022-07-25T07:43:38;10.65;;;7.93;;
25351;SDS011;13304;48.464;8.712;2022-07-25T07:46:04;13.95;;;8.15;;
25351;SDS011;13304;48.464;8.712;2022-07-25T07:48:30;12.05;;;8.05;;
25351;SDS011;13304;48.464;8.712;2022-07-25T07:50:57;12.38;;;7.80;;
25351;SDS011;13304;48.464;8.712;2022-07-25T07:53:24;16.60;;;7.97;;
25351;SDS011;13304;48.464;8.712;2022-07-25T07:56:09;13.38;;;7.70;;
25351;SDS011;13304;48.464;8.712;2022-07-25T07:58:36;9.90;;;7.85;;
25351;SDS011;13304;48.464;8.712;2022-07-25T08:01:02;11.23;;;8.13;;
25351;SDS011;13304;48.464;8.712;2022-07-25T08:03:28;16.75;;;8.02;;
25351;SDS011;13304;48.464;8.712;2022-07-25T08:05:54;15.23;;;7.68;;
25351;SDS011;13304;48.464;8.712;2022-07-25T08:08:19;9.43;;;7.25;;
25351;SDS011;13304;48.464;8.712;2022-07-25T08:10:46;11.00;;;7.57;;
25351;SDS011;13304;48.464;8.712;2022-07-25T08:13:14;10.02;;;7.15;;
25351;SDS011;13304;48.464;8.712;2022-07-25T08:15:40;8.20;;;7.40;;
25351;SDS011;13304;48.464;8.712;2022-07-25T08:18:07;7.90;;;7.10;;
25351;SDS011;13304;48.464;8.712;2022-07-25T08:20:33;9.75;;;7.35;;
25351;SDS011;13304;48.464;8.712;2022-07-25T08:22:58;8.30;;;6.35;;
25351;SDS011;13304;48.464;8.712;2022-07-25T08:25:24;10.13;;;7.25;;
25351;SDS011;13304;48.464;8.712;2022-07-25T08:27:51;7.18;;;6.45;;
25351;SDS011;13304;48.464;8.712;2022-07-25T08:30:24;8.07;;;6.60;;
25351;SDS011;13304;48.464;8.712;2022-07-25T08:33:11;7.07;;;6.35;;
25351;SDS011;13304;48.464;8.712;2022-07-25T08:35:44;9.13;;;6.63;;
25351;SDS011;13304;48.464;8.712;2022-07-25T08:38:13;9.90;;;6.20;;
25351;SDS011;13304;48.464;8.712;2022-07-25T08:40:39;6.60;;;5.97;;
25351;SDS011;13304;48.464;8.712;2022-07-25T08:43:09;7.57;;;6.00;;
25351;SDS011;13304;48.464;8.712;2022-07-25T08:45:36;6.57;;;5.10;;
25351;SDS011;13304;48.464;8.712;2022-07-25T08:48:21;6.55;;;5.35;;
25351;SDS011;13304;48.464;8.712;2022-07-25T08:50:48;6.15;;;5.35;;
25351;SDS011;13304;48.464;8.712;2022-07-25T08:53:16;7.20;;;4.88;;
25351;SDS011;13304;48.464;8.712;2022-07-25T08:55:43;4.95;;;4.25;;
25351;SDS011;13304;48.464;8.712;2022-07-25T08:58:11;6.22;;;4.78;;
25351;SDS011;13304;48.464;8.712;2022-07-25T09:00:41;6.78;;;4.30;;
25351;SDS011;13304;48.464;8.712;2022-07-25T09:03:07;5.95;;;4.93;;
25351;SDS011;13304;48.464;8.712;2022-07-25T09:05:34;7.10;;;5.40;;
25351;SDS011;13304;48.464;8.712;2022-07-25T09:08:08;6.57;;;4.68;;
25351;SDS011;13304;48.464;8.712;2022-07-25T09:10:35;7.50;;;5.20;;
25351;SDS011;13304;48.464;8.712;2022-07-25T09:13:04;6.28;;;5.32;;
25351;SDS011;13304;48.464;8.712;2022-07-25T09:15:36;6.22;;;4.72;;
25351;SDS011;13304;48.464;8.712;2022-07-25T09:18:04;7.15;;;5.15;;
25351;SDS011;13304;48.464;8.712;2022-07-25T09:20:39;5.03;;;4.45;;
25351;SDS011;13304;48.464;8.712;2022-07-25T09:23:05;6.72;;;5.13;;
25351;SDS011;13304;48.464;8.712;2022-07-25T09:25:31;6.18;;;4.68;;
25351;SDS011;13304;48.464;8.712;2022-07-25T09:28:16;6.13;;;4.53;;
25351;SDS011;13304;48.464;8.712;2022-07-25T09:30:56;5.45;;;4.95;;
25351;SDS011;13304;48.464;8.712;2022-07-25T09:33:26;7.15;;;5.03;;
25351;SDS011;13304;48.464;8.712;2022-07-25T09:35:53;5.07;;;4.50;;
25351;SDS011;13304;48.464;8.712;2022-07-25T09:38:21;5.38;;;4.70;;
25351;SDS011;13304;48.464;8.712;2022-07-25T09:40:58;5.28;;;4.75;;
25351;SDS011;13304;48.464;8.712;2022-07-25T09:43:35;7.35;;;4.88;;
25351;SDS011;13304;48.464;8.712;2022-07-25T09:46:08;6.20;;;4.40;;
25351;SDS011;13304;48.464;8.712;2022-07-25T09:48:36;8.07;;;4.65;;
25351;SDS011;13304;48.464;8.712;2022-07-25T09:51:05;5.80;;;4.82;;
25351;SDS011;13304;48.464;8.712;2022-07-25T09:53:31;6.25;;;4.45;;
25351;SDS011;13304;48.464;8.712;2022-07-25T09:55:57;5.43;;;4.45;;
25351;SDS011;13304;48.464;8.712;2022-07-25T09:58:24;6.30;;;5.30;;
25351;SDS011;13304;48.464;8.712;2022-07-25T10:00:53;8.77;;;5.72;;
25351;SDS011;13304;48.464;8.712;2022-07-25T10:06:10;5.47;;;4.50;;
25351;SDS011;13304;48.464;8.712;2022-07-25T10:08:39;11.60;;;6.63;;
25351;SDS011;13304;48.464;8.712;2022-07-25T10:11:16;6.18;;;5.40;;
25351;SDS011;13304;48.464;8.712;2022-07-25T10:13:49;6.13;;;5.20;;
25351;SDS011;13304;48.464;8.712;2022-07-25T10:16:23;5.78;;;5.15;;
25351;SDS011;13304;48.464;8.712;2022-07-25T10:18:53;7.38;;;4.72;;
25351;SDS011;13304;48.464;8.712;2022-07-25T10:21:22;5.68;;;4.95;;
25351;SDS011;13304;48.464;8.712;2022-07-25T10:24:03;6.40;;;4.95;;
25351;SDS011;13304;48.464;8.712;2022-07-25T10:26:30;6.15;;;4.85;;
25351;SDS011;13304;48.464;8.712;2022-07-25T10:28:57;7.32;;;5.50;;
25351;SDS011;13304;48.464;8.712;2022-07-25T10:31:25;6.93;;;4.60;;
25351;SDS011;13304;48.464;8.712;2022-07-25T10:34:01;6.88;;;6.00;;
25351;SDS011;13304;48.464;8.712;2022-07-25T10:36:46;5.22;;;4.68;;
25351;SDS011;13304;48.464;8.712;2022-07-25T10:39:18;6.82;;;6.10;;
25351;SDS011;13304;48.464;8.712;2022-07-25T10:41:51;7.53;;;5.65;;
25351;SDS011;13304;48.464;8.712;2022-07-25T10:44:26;10.88;;;5.82;;
25351;SDS011;13304;48.464;8.712;2022-07-25T10:47:04;7.00;;;5.10;;
25351;SDS011;13304;48.464;8.712;2022-07-25T10:49:34;6.18;;;5.60;;
25351;SDS011;13304;48.464;8.712;2022-07-25T10:52:02;6.75;;;4.63;;
25351;SDS011;13304;48.464;8.712;2022-07-25T10:54:36;4.80;;;4.22;;
25351;SDS011;13304;48.464;8.712;2022-07-25T10:57:04;6.78;;;5.35;;
25351;SDS011;13304;48.464;8.712;2022-07-25T10:59:37;9.57;;;6.20;;
25351;SDS011;13304;48.464;8.712;2022-07-25T11:02:08;5.68;;;4.30;;
25351;SDS011;13304;48.464;8.712;2022-07-25T11:04:40;6.88;;;4.72;;
25351;SDS011;13304;48.464;8.712;2022-07-25T11:07:08;7.45;;;4.75;;
25351;SDS011;13304;48.464;8.712;2022-07-25T11:09:39;6.40;;;4.07;;
25351;SDS011;13304;48.464;8.712;2022-07-25T11:12:06;5.00;;;4.22;;
25351;SDS011;13304;48.464;8.712;2022-07-25T11:14:36;4.93;;;4.43;;
25351;SDS011;13304;48.464;8.712;2022-07-25T11:19:58;5.78;;;4.20;;
25351;SDS011;13304;48.464;8.712;2022-07-25T11:22:26;5.03;;;4.10;;
25351;SDS011;13304;48.464;8.712;2022-07-25T11:24:53;8.05;;;4.22;;
25351;SDS011;13304;48.464;8.712;2022-07-25T11:27:22;7.50;;;4.57;;
25351;SDS011;13304;48.464;8.712;2022-07-25T11:32:15;7.68;;;3.97;;
25351;SDS011;13304;48.464;8.712;2022-07-25T11:34:49;6.30;;;3.88;;
25351;SDS011;13304;48.464;8.712;2022-07-25T11:37:17;4.68;;;3.80;;
25351;SDS011;13304;48.464;8.712;2022-07-25T11:39:45;4.53;;;3.88;;
25351;SDS011;13304;48.464;8.712;2022-07-25T11:42:15;13.60;;;4.57;;
25351;SDS011;13304;48.464;8.712;2022-07-25T11:44:43;5.18;;;3.83;;
25351;SDS011;13304;48.464;8.712;2022-07-25T11:47:21;5.32;;;4.03;;
25351;SDS011;13304;48.464;8.712;2022-07-25T11:49:52;5.60;;;3.40;;
25351;SDS011;13304;48.464;8.712;2022-07-25T11:52:29;4.15;;;3.60;;
25351;SDS011;13304;48.464;8.712;2022-07-25T11:54:58;4.70;;;3.80;;
25351;SDS011;13304;48.464;8.712;2022-07-25T11:57:26;3.83;;;3.50;;
25351;SDS011;13304;48.464;8.712;2022-07-25T12:02:28;4.18;;;3.67;;
25351;SDS011;13304;48.464;8.712;2022-07-25T12:05:05;5.18;;;3.33;;
25351;SDS011;13304;48.464;8.712;2022-07-25T12:10:11;5.60;;;3.38;;
25351;SDS011;13304;48.464;8.712;2022-07-25T12:15:24;4.47;;;3.42;;
25351;SDS011;13304;48.464;8.712;2022-07-25T12:17:53;4.10;;;3.60;;
25351;SDS011;13304;48.464;8.712;2022-07-25T12:20:21;4.70;;;4.07;;
25351;SDS011;13304;48.464;8.712;2022-07-25T12:22:49;3.95;;;3.55;;
25351;SDS011;13304;48.464;8.712;2022-07-25T12:25:16;5.90;;;4.35;;
25351;SDS011;13304;48.464;8.712;2022-07-25T12:27:42;6.55;;;4.85;;
25351;SDS011;13304;48.464;8.712;2022-07-25T12:30:08;10.10;;;4.68;;
25351;SDS011;13304;48.464;8.712;2022-07-25T12:32:35;6.13;;;4.47;;
25351;SDS011;13304;48.464;8.712;2022-07-25T12:35:05;7.70;;;5.13;;
25351;SDS011;13304;48.464;8.712;2022-07-25T12:37:32;6.00;;;4.80;;
25351;SDS011;13304;48.464;8.712;2022-07-25T12:39:58;5.45;;;4.78;;
25351;SDS011;13304;48.464;8.712;2022-07-25T12:42:24;5.07;;;4.57;;
25351;SDS011;13304;48.464;8.712;2022-07-25T12:44:51;5.35;;;4.82;;
25351;SDS011;13304;48.464;8.712;2022-07-25T12:47:17;6.50;;;4.90;;
25351;SDS011;13304;48.464;8.712;2022-07-25T12:49:44;6.80;;;4.78;;
25351;SDS011;13304;48.464;8.712;2022-07-25T12:52:09;6.68;;;5.00;;
25351;SDS011;13304;48.464;8.712;2022-07-25T12:54:35;5.57;;;4.50;;
25351;SDS011;13304;48.464;8.712;2022-07-25T12:57:01;6.32;;;4.85;;
25351;SDS011;13304;48.464;8.712;2022-07-25T12:59:27;6.10;;;4.95;;
25351;SDS011;13304;48.464;8.712;2022-07-25T13:01:53;5.95;;;5.13;;
25351;SDS011;13304;48.464;8.712;2022-07-25T13:04:18;6.30;;;5.03;;
25351;SDS011;13304;48.464;8.712;2022-07-25T13:06:44;7.50;;;5.45;;
25351;SDS011;13304;48.464;8.712;2022-07-25T13:09:10;5.53;;;5.00;;
25351;SDS011;13304;48.464;8.712;2022-07-25T13:11:36;6.07;;;4.68;;
25351;SDS011;13304;48.464;8.712;2022-07-25T13:14:02;11.45;;;5.40;;
25351;SDS011;13304;48.464;8.712;2022-07-25T13:16:27;5.40;;;4.47;;
25351;SDS011;13304;48.464;8.712;2022-07-25T13:18:53;5.47;;;4.90;;
25351;SDS011;13304;48.464;8.712;2022-07-25T13:21:19;5.85;;;4.88;;
25351;SDS011;13304;48.464;8.712;2022-07-25T13:23:45;8.00;;;4.78;;
25351;SDS011;13304;48.464;8.712;2022-07-25T13:26:11;6.13;;;4.72;;
25351;SDS011;13304;48.464;8.712;2022-07-25T13:28:37;9.93;;;5.00;;
25351;SDS011;13304;48.464;8.712;2022-07-25T13:31:02;7.38;;;4.40;;
25351;SDS011;13304;48.464;8.712;2022-07-25T13:33:31;5.20;;;4.72;;
25351;SDS011;13304;48.464;8.712;2022-07-25T13:35:57;6.95;;;4.90;;
25351;SDS011;13304;48.464;8.712;2022-07-25T13:38:24;9.18;;;5.32;;
25351;SDS011;13304;48.464;8.712;2022-07-25T13:40:49;7.72;;;4.95;;
25351;SDS011;13304;48.464;8.712;2022-07-25T13:43:15;6.10;;;4.72;;
25351;SDS011;13304;48.464;8.712;2022-07-25T13:45:41;6.18;;;5.57;;
25351;SDS011;13304;48.464;8.712;2022-07-25T13:48:08;6.85;;;5.15;;
25351;SDS011;13304;48.464;8.712;2022-07-25T13:50:34;7.18;;;6.20;;
25351;SDS011;13304;48.464;8.712;2022-07-25T13:53:00;8.35;;;5.57;;
25351;SDS011;13304;48.464;8.712;2022-07-25T13:55:26;7.32;;;5.57;;
25351;SDS011;13304;48.464;8.712;2022-07-25T13:57:52;5.80;;;5.20;;
25351;SDS011;13304;48.464;8.712;2022-07-25T14:00:18;9.23;;;5.50;;
25351;SDS011;13304;48.464;8.712;2022-07-25T14:02:44;5.90;;;4.93;;
25351;SDS011;13304;48.464;8.712;2022-07-25T14:05:10;7.35;;;5.20;;
25351;SDS011;13304;48.464;8.712;2022-07-25T14:07:36;6.60;;;5.20;;
25351;SDS011;13304;48.464;8.712;2022-07-25T14:10:03;5.57;;;5.00;;
25351;SDS011;13304;48.464;8.712;2022-07-25T14:12:32;10.38;;;5.38;;
25351;SDS011;13304;48.464;8.712;2022-07-25T14:14:59;6.25;;;5.50;;
25351;SDS011;13304;48.464;8.712;2022-07-25T14:17:26;6.57;;;5.35;;
25351;SDS011;13304;48.464;8.712;2022-07-25T14:19:52;6.95;;;5.95;;
25351;SDS011;13304;48.464;8.712;2022-07-25T14:22:18;7.13;;;5.55;;
25351;SDS011;13304;48.464;8.712;2022-07-25T14:24:43;7.65;;;5.35;;
25351;SDS011;13304;48.464;8.712;2022-07-25T14:27:09;10.32;;;5.28;;
25351;SDS011;13304;48.464;8.712;2022-07-25T14:29:36;7.25;;;5.90;;
25351;SDS011;13304;48.464;8.712;2022-07-25T14:32:03;6.40;;;5.30;;
25351;SDS011;13304;48.464;8.712;2022-07-25T14:34:30;10.68;;;5.90;;
25351;SDS011;13304;48.464;8.712;2022-07-25T14:36:56;6.40;;;5.38;;
25351;SDS011;13304;48.464;8.712;2022-07-25T14:39:22;8.95;;;6.13;;
25351;SDS011;13304;48.464;8.712;2022-07-25T14:41:48;8.52;;;5.72;;
25351;SDS011;13304;48.464;8.712;2022-07-25T14:44:13;6.13;;;5.53;;
25351;SDS011;13304;48.464;8.712;2022-07-25T14:46:39;9.52;;;5.93;;
25351;SDS011;13304;48.464;8.712;2022-07-25T14:49:10;8.07;;;5.20;;
25351;SDS011;13304;48.464;8.712;2022-07-25T14:51:37;10.10;;;5.72;;
25351;SDS011;13304;48.464;8.712;2022-07-25T14:54:04;11.85;;;5.53;;
25351;SDS011;13304;48.464;8.712;2022-07-25T14:56:29;7.10;;;5.88;;
25351;SDS011;13304;48.464;8.712;2022-07-25T14:58:55;6.35;;;5.72;;